createdAt,value
2022-09-23T00:01:20.267Z,11.82
2022-09-23T00:04:03.815Z,11.81
2022-09-23T00:06:41.196Z,11.80
2022-09-23T00:09:14.328Z,11.79
2022-09-23T00:11:50.362Z,11.78
2022-09-23T00:14:25.310Z,11.76
2022-09-23T00:16:58.875Z,11.74
2022-09-23T00:19:35.568Z,11.69
2022-09-23T00:22:20.301Z,11.68
2022-09-23T00:24:54.070Z,11.66
2022-09-23T00:27:27.634Z,11.66
2022-09-23T00:30:14.012Z,11.66
2022-09-23T00:32:47.082Z,11.63
2022-09-23T00:35:20.772Z,11.61
2022-09-23T00:37:54.605Z,11.64
2022-09-23T00:40:28.127Z,11.65
2022-09-23T00:43:05.187Z,11.62
2022-09-23T00:45:41.063Z,11.58
2022-09-23T00:48:24.253Z,11.57
2022-09-23T00:51:22.327Z,11.58
2022-09-23T00:53:56.304Z,11.57
2022-09-23T00:56:29.468Z,11.57
2022-09-23T00:59:24.618Z,11.55
2022-09-23T01:02:14.117Z,11.51
2022-09-23T01:04:47.500Z,11.47
2022-09-23T01:07:23.823Z,11.44
2022-09-23T01:09:58.204Z,11.45
2022-09-23T01:13:10.019Z,11.45
2022-09-23T01:15:51.394Z,11.44
2022-09-23T01:18:27.427Z,11.45
2022-09-23T01:21:17.005Z,11.43
2022-09-23T01:24:27.253Z,11.41
2022-09-23T01:27:16.500Z,11.44
2022-09-23T01:30:19.287Z,11.45
2022-09-23T01:33:11.602Z,11.43
2022-09-23T01:35:57.671Z,11.42
2022-09-23T01:38:41.233Z,11.42
2022-09-23T01:41:31.703Z,11.42
2022-09-23T01:44:10.011Z,11.43
2022-09-23T01:46:54.378Z,11.45
2022-09-23T01:49:46.653Z,11.45
2022-09-23T01:52:47.537Z,11.43
2022-09-23T01:55:34.094Z,11.43
2022-09-23T01:58:25.602Z,11.44
2022-09-23T02:01:02.929Z,11.43
2022-09-23T02:03:40.446Z,11.45
2022-09-23T02:06:17.644Z,11.48
2022-09-23T02:08:56.845Z,11.50
2022-09-23T02:11:30.801Z,11.50
2022-09-23T02:14:08.628Z,11.49
2022-09-23T02:16:47.726Z,11.46
2022-09-23T02:19:34.076Z,11.41
2022-09-23T02:22:10.970Z,11.34
2022-09-23T02:25:05.067Z,11.31
2022-09-23T02:28:05.602Z,11.28
2022-09-23T02:30:49.364Z,11.27
2022-09-23T02:33:34.446Z,11.28
2022-09-23T02:36:32.703Z,11.28
2022-09-23T02:39:37.465Z,11.29
2022-09-23T02:42:15.861Z,11.27
2022-09-23T02:45:00.380Z,11.24
2022-09-23T02:47:37.261Z,11.21
2022-09-23T02:50:20.938Z,11.19
2022-09-23T02:52:57.411Z,11.17
2022-09-23T02:55:44.140Z,11.13
2022-09-23T02:58:19.798Z,11.14
2022-09-23T03:01:22.586Z,11.15
2022-09-23T03:04:07.665Z,11.15
2022-09-23T03:06:49.887Z,11.12
2022-09-23T03:09:28.294Z,11.11
2022-09-23T03:12:18.784Z,11.11
2022-09-23T03:14:59.054Z,11.09
2022-09-23T03:17:59.337Z,11.06
2022-09-23T03:20:38.004Z,11.06
2022-09-23T03:23:10.511Z,11.04
2022-09-23T03:25:47.585Z,11.02
2022-09-23T03:28:23.575Z,11.03
2022-09-23T03:31:01.417Z,11.03
2022-09-23T03:33:35.855Z,11.05
2022-09-23T03:36:31.808Z,11.07
2022-09-23T03:39:12.336Z,11.07
2022-09-23T03:41:51.175Z,11.05
2022-09-23T03:44:40.092Z,11.04
2022-09-23T03:47:16.966Z,10.99
2022-09-23T03:49:51.922Z,10.96
2022-09-23T03:52:27.145Z,10.94
2022-09-23T03:55:04.196Z,10.95
2022-09-23T03:57:57.371Z,10.97
2022-09-23T04:00:30.780Z,10.99
2022-09-23T04:03:11.553Z,10.99
2022-09-23T04:05:48.807Z,11.01
2022-09-23T04:08:30.314Z,11.00
2022-09-23T04:11:07.541Z,11.01
2022-09-23T04:13:44.220Z,10.98
2022-09-23T04:16:37.637Z,10.95
2022-09-23T04:19:13.049Z,10.92
2022-09-23T04:22:08.391Z,10.90
2022-09-23T04:24:44.718Z,10.91
2022-09-23T04:27:17.728Z,10.91
2022-09-23T04:29:54.493Z,10.93
2022-09-23T04:32:28.065Z,10.94
2022-09-23T04:35:06.535Z,10.95
2022-09-23T04:37:40.071Z,10.93
2022-09-23T04:40:14.548Z,10.91
2022-09-23T04:42:48.292Z,10.89
2022-09-23T04:45:21.860Z,10.86
2022-09-23T04:47:56.316Z,10.85
2022-09-23T04:50:34.221Z,10.86
2022-09-23T04:53:08.434Z,10.86
2022-09-23T04:55:42.814Z,10.87
2022-09-23T04:58:16.293Z,10.87
2022-09-23T05:00:49.653Z,10.87
2022-09-23T05:03:24.305Z,10.86
2022-09-23T05:06:02.347Z,10.85
2022-09-23T05:08:35.682Z,10.86
2022-09-23T05:11:18.971Z,10.88
2022-09-23T05:14:02.754Z,10.90
2022-09-23T05:16:36.306Z,10.90
2022-09-23T05:19:09.746Z,10.92
2022-09-23T05:21:46.244Z,10.98
2022-09-23T05:24:26.213Z,11.00
2022-09-23T05:27:02.977Z,11.00
2022-09-23T05:29:46.283Z,11.01
2022-09-23T05:32:23.290Z,11.02
2022-09-23T05:35:08.861Z,11.02
2022-09-23T05:37:42.280Z,11.05
2022-09-23T05:40:18.486Z,11.13
2022-09-23T05:42:54.805Z,11.23
2022-09-23T05:45:48.476Z,11.34
2022-09-23T05:48:21.957Z,11.41
2022-09-23T05:50:56.137Z,11.47
2022-09-23T05:53:45.290Z,11.54
2022-09-23T05:56:30.445Z,11.56
2022-09-23T05:59:13.752Z,11.58
2022-09-23T06:01:47.405Z,11.69
2022-09-23T06:04:31.402Z,11.80
2022-09-23T06:07:04.829Z,11.84
2022-09-23T06:09:38.089Z,11.85
2022-09-23T06:12:11.684Z,11.86
2022-09-23T06:15:05.377Z,11.97
2022-09-23T06:17:38.554Z,12.13
2022-09-23T06:20:22.135Z,12.35
2022-09-23T06:22:56.594Z,13.16
2022-09-23T06:25:39.903Z,14.18
2022-09-23T06:28:16.389Z,16.33
2022-09-23T06:30:50.858Z,17.63
2022-09-23T06:33:36.319Z,17.94
2022-09-23T06:36:11.507Z,17.88
2022-09-23T06:38:45.657Z,18.09
2022-09-23T06:41:22.935Z,18.18
2022-09-23T06:43:56.699Z,18.56
2022-09-23T06:46:31.592Z,19.12
2022-09-23T06:49:17.925Z,20.77
2022-09-23T06:52:11.324Z,22.77
2022-09-23T06:54:44.401Z,23.47
2022-09-23T06:57:17.670Z,23.44
2022-09-23T06:59:51.381Z,23.16
2022-09-23T07:02:24.759Z,22.68
2022-09-23T07:04:57.986Z,22.10
2022-09-23T07:07:33.687Z,21.75
2022-09-23T07:10:08.131Z,22.20
2022-09-23T07:12:43.575Z,22.59
2022-09-23T07:15:36.947Z,22.89
2022-09-23T07:18:19.515Z,23.78
2022-09-23T07:20:59.332Z,24.27
2022-09-23T07:23:35.441Z,24.48
2022-09-23T07:26:09.374Z,24.37
2022-09-23T07:28:46.197Z,25.05
2022-09-23T07:31:34.242Z,26.37
2022-09-23T07:34:12.001Z,27.73
2022-09-23T07:36:45.602Z,27.81
2022-09-23T07:39:19.181Z,28.21
2022-09-23T07:41:55.674Z,29.85
2022-09-23T07:44:48.124Z,30.76
2022-09-23T07:47:24.842Z,30.95
2022-09-23T07:50:12.382Z,31.49
2022-09-23T07:52:49.463Z,31.61
2022-09-23T07:55:22.767Z,30.37
2022-09-23T07:57:56.515Z,28.80
2022-09-23T08:00:33.511Z,27.13
2022-09-23T08:03:06.836Z,25.79
2022-09-23T08:05:40.435Z,24.81
2022-09-23T08:08:27.544Z,23.88
2022-09-23T08:11:21.449Z,23.17
2022-09-23T08:13:55.184Z,22.62
2022-09-23T08:16:28.680Z,21.96
2022-09-23T08:19:02.195Z,21.41
2022-09-23T08:21:40.688Z,21.03
2022-09-23T08:24:34.472Z,20.71
2022-09-23T08:27:28.494Z,20.36
2022-09-23T08:30:21.769Z,20.01
2022-09-23T08:32:58.375Z,19.74
2022-09-23T08:35:41.895Z,19.44
2022-09-23T08:38:35.308Z,19.08
2022-09-23T08:41:36.691Z,18.82
2022-09-23T08:44:15.676Z,18.57
2022-09-23T08:46:57.445Z,18.42
2022-09-23T08:49:38.985Z,18.35
2022-09-23T08:52:19.828Z,18.25
2022-09-23T08:54:55.460Z,18.19
2022-09-23T08:57:40.730Z,18.10
2022-09-23T09:00:22.121Z,18.00
2022-09-23T09:02:55.699Z,17.98
2022-09-23T09:05:31.280Z,17.99
2022-09-23T09:08:05.326Z,17.97
2022-09-23T09:10:47.628Z,18.10
2022-09-23T09:13:30.632Z,18.20
2022-09-23T09:16:27.271Z,18.20
2022-09-23T09:19:21.038Z,18.23
2022-09-23T09:22:09.612Z,18.14
2022-09-23T09:24:50.571Z,18.02
2022-09-23T09:27:27.211Z,17.91
2022-09-23T09:30:03.340Z,17.83
2022-09-23T09:33:00.799Z,17.86
2022-09-23T09:35:42.386Z,17.92
2022-09-23T09:38:15.653Z,17.99
2022-09-23T09:40:51.959Z,18.21
2022-09-23T09:43:25.859Z,18.50
2022-09-23T09:46:15.403Z,18.98
2022-09-23T09:48:56.622Z,19.52
2022-09-23T09:51:31.081Z,19.50
2022-09-23T09:54:25.038Z,19.31
2022-09-23T10:45:04.957Z,18.70
2022-09-23T10:48:04.184Z,18.93
2022-09-23T10:50:44.570Z,19.00
2022-09-23T10:53:25.923Z,19.14
2022-09-23T10:56:25.869Z,19.28
2022-09-23T10:59:15.581Z,19.29
2022-09-23T11:01:59.531Z,19.18
2022-09-23T11:04:55.068Z,19.42
2022-09-23T11:07:38.320Z,20.49
2022-09-23T11:10:49.369Z,20.94
2022-09-23T11:13:37.553Z,20.75
2022-09-23T11:16:25.304Z,20.32
2022-09-23T11:19:24.014Z,19.94
2022-09-23T11:22:17.447Z,19.90
2022-09-23T11:25:26.860Z,19.99
2022-09-23T11:28:26.594Z,20.05
2022-09-23T11:31:10.461Z,20.01
2022-09-23T11:34:03.221Z,19.86
2022-09-23T11:36:43.012Z,19.82
2022-09-23T11:39:19.943Z,19.80
2022-09-23T11:41:57.815Z,19.79
2022-09-23T11:44:34.177Z,19.74
2022-09-23T11:47:11.139Z,19.60
2022-09-23T11:49:51.945Z,19.42
2022-09-23T11:52:32.042Z,19.48
2022-09-23T11:55:22.348Z,19.61
2022-09-23T11:58:02.087Z,19.75
2022-09-23T12:00:40.790Z,19.91
2022-09-23T12:03:34.461Z,20.12
2022-09-23T12:06:23.339Z,20.40
2022-09-23T12:09:02.996Z,20.59
2022-09-23T12:11:44.416Z,20.67
2022-09-23T12:14:23.426Z,20.64
2022-09-23T12:17:17.166Z,20.45
2022-09-23T12:20:13.717Z,20.17
2022-09-23T12:23:06.180Z,19.89
2022-09-23T12:25:47.896Z,19.64
2022-09-23T12:28:27.042Z,19.57
2022-09-23T12:31:03.913Z,19.56
2022-09-23T12:33:39.069Z,19.51
2022-09-23T12:36:14.665Z,19.38
2022-09-23T12:38:54.056Z,19.22
2022-09-23T12:41:37.889Z,19.03
2022-09-23T12:44:37.031Z,18.81
2022-09-23T12:47:39.227Z,18.90
2022-09-23T12:50:51.127Z,19.25
2022-09-23T12:54:17.703Z,19.47
2022-09-23T12:57:13.907Z,19.72
2022-09-23T13:00:24.189Z,19.72
2022-09-23T13:03:18.529Z,20.09
2022-09-23T13:06:16.350Z,20.12
2022-09-23T13:08:51.140Z,19.97
2022-09-23T13:11:28.280Z,19.80
2022-09-23T13:14:07.364Z,19.63
2022-09-23T13:16:46.339Z,19.45
2022-09-23T13:19:47.728Z,19.25
2022-09-23T13:23:01.595Z,19.05
2022-09-23T13:25:42.058Z,18.92
2022-09-23T13:28:28.618Z,18.81
2022-09-23T13:31:07.287Z,18.72
2022-09-23T13:33:46.937Z,18.63
2022-09-23T13:36:22.202Z,18.54
2022-09-23T13:39:15.380Z,18.43
2022-09-23T13:41:48.957Z,18.34
2022-09-23T13:44:24.087Z,18.26
2022-09-23T13:47:00.435Z,18.17
2022-09-23T13:49:37.897Z,18.09
2022-09-23T13:52:25.813Z,18.06
2022-09-23T13:54:59.580Z,18.03
2022-09-23T13:57:35.418Z,18.00
2022-09-23T14:00:22.622Z,17.97
2022-09-23T14:02:56.204Z,17.93
2022-09-23T14:05:34.178Z,17.89
2022-09-23T14:08:09.587Z,17.91
2022-09-23T14:10:46.429Z,17.88
2022-09-23T14:13:26.687Z,17.84
2022-09-23T14:16:04.622Z,17.80
2022-09-23T14:18:42.180Z,17.77
2022-09-23T14:21:35.487Z,17.74
2022-09-23T14:24:16.388Z,17.70
2022-09-23T14:26:51.981Z,17.65
2022-09-23T14:29:30.060Z,17.60
2022-09-23T14:32:07.044Z,17.56
2022-09-23T14:34:50.829Z,17.58
2022-09-23T14:37:46.993Z,17.61
2022-09-23T14:40:23.130Z,17.65
2022-09-23T14:43:05.496Z,17.71
2022-09-23T14:45:41.638Z,17.79
2022-09-23T14:48:19.129Z,17.85
2022-09-23T14:50:56.332Z,17.91
2022-09-23T14:53:47.341Z,17.96
2022-09-23T14:56:25.324Z,18.00
2022-09-23T14:59:01.145Z,18.01
2022-09-23T15:01:41.812Z,18.01
2022-09-23T15:04:18.996Z,17.97
2022-09-23T15:06:59.327Z,17.90
2022-09-23T15:09:37.310Z,17.84
2022-09-23T15:12:16.396Z,17.81
2022-09-23T15:14:55.116Z,17.82
2022-09-23T15:17:32.885Z,17.83
2022-09-23T15:20:10.728Z,17.82
2022-09-23T15:22:48.970Z,17.80
2022-09-23T15:25:28.578Z,17.73
2022-09-23T15:28:18.490Z,17.69
2022-09-23T15:30:53.776Z,17.66
2022-09-23T15:33:28.563Z,17.62
2022-09-23T15:36:21.158Z,17.61
2022-09-23T15:39:16.558Z,17.55
2022-09-23T15:41:50.218Z,17.45
2022-09-23T15:44:30.071Z,17.38
2022-09-23T15:47:24.027Z,17.32
2022-09-23T15:50:09.344Z,17.25
2022-09-23T15:52:45.510Z,17.19
2022-09-23T15:55:23.270Z,17.12
2022-09-23T15:57:57.064Z,17.06
2022-09-23T16:00:30.422Z,17.01
2022-09-23T16:03:04.595Z,16.94
2022-09-23T16:05:40.783Z,16.89
2022-09-23T16:08:16.453Z,16.85
2022-09-23T16:10:50.149Z,16.79
2022-09-23T16:13:31.935Z,16.72
2022-09-23T16:16:08.463Z,16.67
2022-09-23T16:18:44.169Z,16.61
2022-09-23T16:21:20.067Z,16.55
2022-09-23T16:23:54.869Z,16.50
2022-09-23T16:26:30.704Z,16.45
2022-09-23T16:29:04.181Z,16.37
2022-09-23T16:31:40.760Z,16.32
2022-09-23T16:34:14.387Z,16.27
2022-09-23T16:36:48.394Z,16.22
2022-09-23T16:39:23.184Z,16.19
2022-09-23T16:41:56.823Z,16.15
2022-09-23T16:44:32.289Z,16.10
2022-09-23T16:47:05.939Z,16.07
2022-09-23T16:49:39.394Z,16.01
2022-09-23T16:52:17.189Z,15.95
2022-09-23T16:54:49.968Z,15.89
2022-09-23T16:57:35.465Z,15.78
2022-09-23T17:00:31.295Z,15.69
2022-09-23T17:03:24.421Z,15.62
2022-09-23T17:06:07.227Z,15.55
2022-09-23T17:08:43.488Z,15.48
2022-09-23T17:11:17.594Z,15.41
2022-09-23T17:13:51.965Z,15.35
2022-09-23T17:16:28.441Z,15.30
2022-09-23T17:19:07.590Z,15.24
2022-09-23T17:21:45.132Z,15.20
2022-09-23T17:24:19.252Z,15.14
2022-09-23T17:26:53.421Z,15.10
2022-09-23T17:29:29.427Z,15.07
2022-09-23T17:32:04.597Z,15.04
2022-09-23T17:34:38.160Z,15.02
2022-09-23T17:37:11.461Z,15.01
2022-09-23T17:39:48.498Z,15.02
2022-09-23T17:42:21.804Z,15.03
2022-09-23T17:44:56.877Z,15.06
2022-09-23T17:47:33.381Z,15.11
2022-09-23T17:50:08.578Z,15.15
2022-09-23T17:52:42.152Z,15.18
2022-09-23T17:55:17.092Z,15.21
2022-09-23T17:57:55.358Z,15.22
2022-09-23T18:00:32.009Z,15.24
2022-09-23T18:03:05.709Z,15.23
2022-09-23T18:05:39.457Z,15.22
2022-09-23T18:08:12.946Z,15.23
2022-09-23T18:10:49.865Z,15.22
2022-09-23T18:13:23.859Z,15.19
2022-09-23T18:15:57.561Z,15.16
2022-09-23T18:18:31.832Z,15.13
2022-09-23T18:21:20.061Z,15.12
2022-09-23T18:23:53.461Z,15.11
2022-09-23T18:26:28.349Z,15.12
2022-09-23T18:29:02.721Z,15.13
2022-09-23T18:31:39.002Z,15.13
2022-09-23T18:34:15.493Z,15.13
2022-09-23T18:36:49.220Z,15.13
2022-09-23T18:39:23.218Z,15.11
2022-09-23T18:41:57.584Z,15.07
2022-09-23T18:44:34.252Z,15.01
2022-09-23T18:47:07.734Z,15.00
2022-09-23T18:50:03.069Z,15.00
2022-09-23T18:52:45.845Z,15.00
2022-09-23T18:55:19.588Z,14.98
2022-09-23T18:57:52.999Z,14.97
2022-09-23T19:00:26.768Z,14.99
2022-09-23T19:03:11.281Z,15.00
2022-09-23T19:05:45.588Z,15.01
2022-09-23T19:08:20.047Z,15.03
2022-09-23T19:11:00.652Z,15.05
2022-09-23T19:13:37.754Z,15.05
2022-09-23T19:16:17.355Z,15.05
2022-09-23T19:18:54.733Z,15.05
2022-09-23T19:21:29.708Z,15.05
2022-09-23T19:24:04.753Z,15.04
2022-09-23T19:26:41.259Z,15.05
2022-09-23T19:29:19.744Z,15.06
2022-09-23T19:31:53.980Z,15.09
2022-09-23T19:34:31.750Z,15.12
2022-09-23T19:37:05.523Z,15.14
2022-09-23T19:39:53.181Z,15.16
2022-09-23T19:42:28.425Z,15.17
2022-09-23T19:45:01.527Z,15.16
2022-09-23T19:47:44.670Z,15.15
2022-09-23T19:50:19.451Z,15.11
2022-09-23T19:52:53.180Z,15.08
2022-09-23T19:55:28.677Z,15.04
2022-09-23T19:58:02.293Z,15.01
2022-09-23T20:00:36.272Z,14.98
2022-09-23T20:03:10.216Z,14.94
2022-09-23T20:05:44.397Z,14.90
2022-09-23T20:08:17.694Z,14.85
2022-09-23T20:10:53.286Z,14.81
2022-09-23T20:13:27.529Z,14.79
2022-09-23T20:16:09.324Z,14.79
2022-09-23T20:18:43.799Z,14.78
2022-09-23T20:21:18.360Z,14.77
2022-09-23T20:23:51.916Z,14.77
2022-09-23T20:26:42.703Z,14.77
2022-09-23T20:29:16.820Z,14.75
2022-09-23T20:31:50.601Z,14.71
2022-09-23T20:34:24.911Z,14.66
2022-09-23T20:36:59.462Z,14.61
2022-09-23T20:39:36.800Z,14.57
2022-09-23T20:42:10.451Z,14.52
2022-09-23T20:44:45.282Z,14.45
2022-09-23T20:47:20.151Z,14.39
2022-09-23T20:49:54.144Z,14.34
2022-09-23T20:52:49.127Z,14.24
2022-09-23T20:55:23.228Z,14.16
2022-09-23T20:57:57.117Z,14.12
2022-09-23T21:00:30.627Z,14.10
2022-09-23T21:03:05.006Z,14.06
2022-09-23T21:05:40.317Z,14.03
2022-09-23T21:08:13.561Z,13.99
2022-09-23T21:10:54.502Z,13.95
2022-09-23T21:13:32.409Z,13.92
2022-09-23T21:16:09.244Z,13.87
2022-09-23T21:18:46.027Z,13.81
2022-09-23T21:21:22.602Z,13.77
2022-09-23T21:24:07.076Z,13.72
2022-09-23T21:26:50.804Z,13.65
2022-09-23T21:29:24.221Z,13.56
2022-09-23T21:31:57.892Z,13.51
2022-09-23T21:34:32.445Z,13.46
2022-09-23T21:37:06.320Z,13.44
2022-09-23T21:39:40.143Z,13.41
2022-09-23T21:42:33.374Z,13.39
2022-09-23T21:45:07.514Z,13.36
2022-09-23T21:47:41.019Z,13.32
2022-09-23T21:50:14.770Z,13.28
2022-09-23T21:52:52.444Z,13.24
2022-09-23T21:55:28.162Z,13.20
2022-09-23T21:58:01.299Z,13.19
2022-09-23T22:00:46.345Z,13.16
2022-09-23T22:03:31.098Z,13.15
2022-09-23T22:06:07.168Z,13.12
2022-09-23T22:08:45.158Z,13.08
2022-09-23T22:11:38.949Z,13.04
2022-09-23T22:14:14.350Z,12.96
2022-09-23T22:16:48.154Z,12.92
2022-09-23T22:19:25.937Z,12.87
2022-09-23T22:21:59.562Z,12.82
2022-09-23T22:24:53.928Z,12.77
2022-09-23T22:27:30.223Z,12.73
2022-09-23T22:30:25.754Z,12.71
2022-09-23T22:33:01.899Z,12.71
2022-09-23T22:35:35.046Z,12.70
2022-09-23T22:38:11.107Z,12.71
2022-09-23T22:40:47.532Z,12.71
2022-09-23T22:43:31.281Z,12.68
2022-09-23T22:46:07.721Z,12.62
2022-09-23T22:48:41.072Z,12.58
2022-09-23T22:51:14.613Z,12.53
2022-09-23T22:53:48.504Z,12.51
2022-09-23T22:56:21.903Z,12.48
2022-09-23T22:58:58.131Z,12.46
2022-09-23T23:01:31.947Z,12.43
2022-09-23T23:04:09.103Z,12.41
2022-09-23T23:06:43.293Z,12.39
2022-09-23T23:09:18.783Z,12.37
2022-09-23T23:11:52.456Z,12.33
2022-09-23T23:14:26.715Z,12.31
2022-09-23T23:17:01.105Z,12.26
2022-09-23T23:19:55.574Z,12.23
2022-09-23T23:22:31.353Z,12.21
2022-09-23T23:25:25.172Z,12.17
2022-09-23T23:27:58.797Z,12.13
2022-09-23T23:30:32.445Z,12.10
2022-09-23T23:33:08.446Z,12.07
2022-09-23T23:35:41.736Z,12.04
2022-09-23T23:38:15.105Z,12.01
2022-09-23T23:40:52.883Z,11.99
2022-09-23T23:43:29.141Z,11.97
2022-09-23T23:46:14.686Z,11.96
2022-09-23T23:48:48.534Z,11.91
2022-09-23T23:51:23.139Z,11.86
2022-09-23T23:53:58.926Z,11.83
2022-09-23T23:56:33.818Z,11.80
2022-09-23T23:59:07.463Z,11.77
